createdAt,value
2018-05-15T00:02:07.980Z,5.83
2018-05-15T00:04:35.660Z,5.60
2018-05-15T00:07:04.111Z,5.63
2018-05-15T00:09:31.659Z,5.67
2018-05-15T00:11:59.224Z,6.10
2018-05-15T00:14:27.573Z,5.87
2018-05-15T00:16:55.680Z,5.80
2018-05-15T00:19:24.033Z,5.80
2018-05-15T00:21:51.582Z,5.90
2018-05-15T00:24:19.154Z,5.47
2018-05-15T00:26:46.723Z,5.93
2018-05-15T00:29:15.156Z,5.30
2018-05-15T00:31:42.843Z,6.30
2018-05-15T00:34:10.932Z,4.93
2018-05-15T00:36:38.807Z,5.20
2018-05-15T00:39:06.364Z,5.47
2018-05-15T00:41:34.688Z,5.63
2018-05-15T00:44:02.249Z,5.37
2018-05-15T00:46:29.803Z,5.10
2018-05-15T00:48:58.074Z,4.90
2018-05-15T00:51:25.636Z,5.10
2018-05-15T00:53:53.194Z,6.17
2018-05-15T00:56:20.800Z,5.43
2018-05-15T00:58:48.389Z,5.60
2018-05-15T01:01:16.354Z,5.50
2018-05-15T01:03:44.740Z,5.33
2018-05-15T01:06:13.514Z,5.03
2018-05-15T01:08:42.394Z,4.80
2018-05-15T01:11:10.054Z,5.17
2018-05-15T01:13:37.643Z,5.07
2018-05-15T01:16:05.932Z,5.70
2018-05-15T01:18:34.217Z,5.27
2018-05-15T01:21:01.771Z,5.97
2018-05-15T01:23:29.342Z,5.23
2018-05-15T01:25:56.932Z,4.80
2018-05-15T01:28:24.505Z,5.50
2018-05-15T01:30:52.803Z,5.73
2018-05-15T01:33:21.251Z,7.20
2018-05-15T01:35:48.803Z,5.07
2018-05-15T01:38:16.354Z,5.20
2018-05-15T01:40:44.410Z,5.57
2018-05-15T01:43:12.004Z,5.53
2018-05-15T01:45:40.167Z,4.73
2018-05-15T01:48:09.092Z,6.43
2018-05-15T01:50:37.222Z,5.70
2018-05-15T01:53:04.792Z,5.30
2018-05-15T01:55:32.340Z,5.50
2018-05-15T01:57:59.961Z,5.23
2018-05-15T02:00:27.506Z,5.37
2018-05-15T02:02:56.064Z,4.93
2018-05-15T02:05:24.529Z,5.70
2018-05-15T02:07:53.235Z,5.50
2018-05-15T02:10:20.783Z,5.70
2018-05-15T02:12:48.333Z,5.80
2018-05-15T02:15:16.439Z,5.97
2018-05-15T02:17:44.499Z,6.30
2018-05-15T02:20:12.136Z,6.87
2018-05-15T02:22:40.649Z,5.10
2018-05-15T02:25:08.509Z,5.37
2018-05-15T02:27:36.051Z,5.30
2018-05-15T02:30:03.662Z,5.67
2018-05-15T02:32:31.257Z,5.90
2018-05-15T02:34:59.495Z,5.83
2018-05-15T02:37:27.730Z,6.07
2018-05-15T02:39:55.287Z,6.07
2018-05-15T02:42:22.839Z,6.00
2018-05-15T02:44:50.452Z,5.80
2018-05-15T02:47:18.725Z,6.20
2018-05-15T02:49:47.012Z,5.43
2018-05-15T02:52:14.699Z,5.90
2018-05-15T02:54:42.251Z,6.10
2018-05-15T02:57:10.248Z,6.33
2018-05-15T02:59:37.960Z,5.30
2018-05-15T03:02:06.779Z,5.40
2018-05-15T03:04:34.321Z,5.63
2018-05-15T03:07:02.563Z,5.33
2018-05-15T03:09:30.096Z,5.83
2018-05-15T03:11:57.636Z,5.23
2018-05-15T03:14:25.680Z,7.50
2018-05-15T03:16:53.903Z,5.60
2018-05-15T03:19:22.383Z,5.57
2018-05-15T03:21:49.938Z,5.43
2018-05-15T03:24:17.465Z,6.40
2018-05-15T03:26:45.048Z,5.27
2018-05-15T03:29:12.621Z,5.83
2018-05-15T03:31:40.231Z,6.00
2018-05-15T03:34:08.615Z,5.80
2018-05-15T03:36:37.076Z,6.03
2018-05-15T03:39:04.650Z,5.27
2018-05-15T03:41:32.190Z,6.10
2018-05-15T03:43:59.774Z,5.53
2018-05-15T03:46:27.314Z,6.40
2018-05-15T03:48:54.976Z,5.37
2018-05-15T03:51:23.308Z,6.27
2018-05-15T03:53:50.843Z,5.53
2018-05-15T03:56:18.418Z,5.97
2018-05-15T03:58:45.987Z,5.97
2018-05-15T04:01:25.844Z,7.03
2018-05-15T04:04:06.466Z,6.37
2018-05-15T04:06:58.924Z,6.37
2018-05-15T04:09:26.508Z,7.47
2018-05-15T04:11:54.056Z,6.33
2018-05-15T04:14:23.034Z,6.87
2018-05-15T04:16:50.565Z,7.00
2018-05-15T04:19:19.101Z,7.30
2018-05-15T04:21:46.662Z,7.23
2018-05-15T04:24:14.198Z,8.27
2018-05-15T04:26:41.760Z,6.73
2018-05-15T04:29:09.566Z,6.90
2018-05-15T04:31:37.514Z,6.67
2018-05-15T04:34:05.495Z,7.23
2018-05-15T04:36:33.800Z,7.10
2018-05-15T04:39:01.402Z,7.60
2018-05-15T04:41:28.961Z,8.27
2018-05-15T04:43:56.610Z,7.80
2018-05-15T04:46:24.108Z,7.93
2018-05-15T04:48:51.655Z,7.70
2018-05-15T04:51:19.813Z,8.50
2018-05-15T04:53:47.367Z,8.17
2018-05-15T04:56:14.898Z,8.47
2018-05-15T04:58:42.479Z,7.63
2018-05-15T05:01:10.212Z,8.33
2018-05-15T05:03:38.470Z,9.53
2018-05-15T05:06:06.768Z,8.60
2018-05-15T05:08:34.897Z,8.00
2018-05-15T05:11:02.464Z,8.60
2018-05-15T05:13:30.016Z,9.07
2018-05-15T05:15:58.209Z,9.70
2018-05-15T05:18:26.191Z,10.63
2018-05-15T05:20:53.728Z,10.27
2018-05-15T05:23:21.265Z,10.53
2018-05-15T05:25:48.850Z,10.20
2018-05-15T05:28:16.386Z,11.00
2018-05-15T05:30:44.459Z,9.60
2018-05-15T05:33:12.808Z,10.57
2018-05-15T05:35:40.431Z,9.70
2018-05-15T05:38:08.935Z,10.67
2018-05-15T05:40:36.474Z,9.23
2018-05-15T05:43:04.069Z,10.37
2018-05-15T05:45:31.652Z,10.70
2018-05-15T05:47:59.218Z,10.00
2018-05-15T05:50:27.489Z,11.03
2018-05-15T05:52:55.103Z,10.60
2018-05-15T05:55:22.653Z,10.50
2018-05-15T05:57:50.220Z,9.90
2018-05-15T06:00:17.759Z,9.97
2018-05-15T06:02:45.895Z,10.07
2018-05-15T06:05:13.950Z,10.10
2018-05-15T06:07:42.193Z,8.50
2018-05-15T06:10:09.983Z,9.07
2018-05-15T06:12:37.658Z,7.93
2018-05-15T06:15:06.168Z,8.17
2018-05-15T06:17:34.587Z,7.53
2018-05-15T06:20:02.147Z,7.07
2018-05-15T06:22:29.714Z,6.63
2018-05-15T06:24:57.287Z,6.10
2018-05-15T06:27:25.443Z,6.10
2018-05-15T06:29:52.991Z,6.00
2018-05-15T06:32:20.612Z,6.33
2018-05-15T06:34:48.881Z,5.07
2018-05-15T06:37:16.955Z,5.80
2018-05-15T06:39:44.489Z,5.37
2018-05-15T06:42:12.021Z,5.90
2018-05-15T06:44:40.610Z,5.40
2018-05-15T06:47:08.766Z,5.87
2018-05-15T06:49:36.837Z,6.07
2018-05-15T06:52:04.412Z,6.87
2018-05-15T06:54:31.940Z,5.50
2018-05-15T06:56:59.517Z,6.33
2018-05-15T06:59:27.045Z,7.03
2018-05-15T07:01:55.320Z,6.63
2018-05-15T07:04:22.793Z,7.13
2018-05-15T07:06:51.385Z,6.23
2018-05-15T07:09:18.921Z,6.60
2018-05-15T07:11:46.463Z,5.77
2018-05-15T07:14:14.784Z,5.87
2018-05-15T07:16:42.318Z,5.37
2018-05-15T07:19:11.623Z,6.20
2018-05-15T07:21:39.348Z,5.67
2018-05-15T07:24:06.910Z,5.90
2018-05-15T07:26:35.199Z,5.60
2018-05-15T07:29:02.741Z,5.83
2018-05-15T07:31:30.278Z,6.00
2018-05-15T07:33:58.289Z,5.57
2018-05-15T07:36:25.815Z,5.67
2018-05-15T07:38:53.799Z,5.43
2018-05-15T07:41:21.359Z,5.57
2018-05-15T07:43:48.896Z,5.20
2018-05-15T07:46:16.486Z,5.73
2018-05-15T07:48:44.012Z,5.13
2018-05-15T07:51:12.076Z,6.23
2018-05-15T07:53:39.837Z,5.20
2018-05-15T07:56:07.620Z,5.47
2018-05-15T07:58:35.226Z,4.93
2018-05-15T08:01:03.535Z,5.17
2018-05-15T08:03:31.982Z,5.00
2018-05-15T08:06:00.315Z,5.30
2018-05-15T08:08:28.534Z,4.80
2018-05-15T08:10:56.090Z,4.70
2018-05-15T08:13:23.630Z,5.20
2018-05-15T08:15:51.768Z,4.70
2018-05-15T08:18:20.020Z,5.40
2018-05-15T08:20:47.546Z,4.87
2018-05-15T08:23:15.655Z,5.53
2018-05-15T08:25:43.188Z,5.43
2018-05-15T08:28:10.726Z,5.30
2018-05-15T08:30:38.564Z,5.30
2018-05-15T08:33:06.947Z,5.57
2018-05-15T08:35:34.492Z,4.97
2018-05-15T08:38:02.853Z,4.87
2018-05-15T08:40:30.392Z,4.67
2018-05-15T08:42:57.931Z,5.27
2018-05-15T08:45:25.601Z,4.93
2018-05-15T08:47:53.075Z,4.90
2018-05-15T08:50:21.424Z,5.40
2018-05-15T08:52:48.987Z,5.60
2018-05-15T08:55:16.519Z,5.53
2018-05-15T08:57:44.106Z,5.50
2018-05-15T09:00:11.653Z,5.53
2018-05-15T09:02:39.946Z,5.13
2018-05-15T09:05:08.590Z,6.47
2018-05-15T09:07:36.589Z,5.33
2018-05-15T09:10:04.147Z,4.93
2018-05-15T09:12:31.683Z,4.97
2018-05-15T09:14:59.676Z,5.13
2018-05-15T09:17:28.166Z,5.53
2018-05-15T09:19:55.710Z,5.37
2018-05-15T09:22:23.690Z,4.53
2018-05-15T09:24:51.223Z,5.10
2018-05-15T09:27:18.808Z,5.70
2018-05-15T09:29:46.412Z,4.83
2018-05-15T09:32:13.957Z,5.50
2018-05-15T09:34:42.314Z,5.20
2018-05-15T09:37:10.879Z,6.20
2018-05-15T09:39:38.819Z,4.80
2018-05-15T09:42:06.540Z,5.00
2018-05-15T09:44:34.115Z,4.60
2018-05-15T09:47:02.262Z,4.73
2018-05-15T09:49:30.598Z,5.30
2018-05-15T09:51:58.239Z,4.57
2018-05-15T09:54:25.773Z,4.60
2018-05-15T09:56:53.342Z,4.20
2018-05-15T09:59:20.903Z,5.20
2018-05-15T10:01:49.182Z,4.83
2018-05-15T10:04:16.728Z,4.47
2018-05-15T10:06:44.902Z,4.60
2018-05-15T10:09:12.443Z,5.03
2018-05-15T10:11:40.017Z,4.83
2018-05-15T10:14:08.670Z,4.70
2018-05-15T10:16:36.255Z,4.67
2018-05-15T10:19:04.311Z,4.67
2018-05-15T10:21:31.843Z,4.67
2018-05-15T10:23:59.389Z,5.07
2018-05-15T10:26:27.028Z,4.47
2018-05-15T10:28:54.807Z,4.60
2018-05-15T10:31:22.390Z,4.97
2018-05-15T10:33:50.827Z,4.47
2018-05-15T10:36:18.414Z,5.17
2018-05-15T10:38:46.575Z,4.53
2018-05-15T10:41:14.113Z,4.60
2018-05-15T10:43:41.647Z,4.40
2018-05-15T10:46:09.615Z,5.10
2018-05-15T10:48:37.145Z,4.30
2018-05-15T10:51:05.450Z,4.10
2018-05-15T10:53:32.987Z,4.73
2018-05-15T10:56:00.593Z,4.87
2018-05-15T10:58:28.188Z,4.40
2018-05-15T11:00:55.870Z,4.13
2018-05-15T11:03:24.091Z,4.03
2018-05-15T11:05:52.343Z,3.90
2018-05-15T11:08:20.353Z,4.80
2018-05-15T11:10:47.880Z,3.93
2018-05-15T11:13:15.417Z,4.27
2018-05-15T11:15:43.338Z,3.97
2018-05-15T11:18:25.028Z,4.47
2018-05-15T11:21:03.966Z,4.33
2018-05-15T11:23:43.336Z,4.20
2018-05-15T11:26:10.870Z,4.33
2018-05-15T11:28:38.919Z,3.90
2018-05-15T11:31:06.840Z,4.00
2018-05-15T11:33:35.216Z,4.20
2018-05-15T11:36:02.903Z,4.27
2018-05-15T11:38:30.650Z,3.77
2018-05-15T11:40:58.190Z,4.33
2018-05-15T11:43:25.794Z,4.57
2018-05-15T11:45:53.383Z,4.37
2018-05-15T11:48:21.483Z,4.60
2018-05-15T11:50:50.177Z,4.10
2018-05-15T11:53:17.512Z,4.57
2018-05-15T11:55:44.469Z,4.60
2018-05-15T11:58:12.105Z,4.63
2018-05-15T12:00:40.377Z,3.70
2018-05-15T12:03:08.580Z,4.80
2018-05-15T12:05:36.929Z,4.00
2018-05-15T12:08:05.029Z,4.00
2018-05-15T12:10:32.567Z,4.13
2018-05-15T12:13:00.743Z,4.20
2018-05-15T12:15:28.807Z,4.10
2018-05-15T12:17:57.468Z,4.13
2018-05-15T12:20:24.999Z,4.03
2018-05-15T12:22:52.559Z,4.10
2018-05-15T12:25:20.123Z,4.03
2018-05-15T12:27:47.655Z,4.17
2018-05-15T12:30:15.191Z,4.63
2018-05-15T12:32:42.761Z,3.90
2018-05-15T12:35:10.769Z,4.10
2018-05-15T12:37:39.956Z,4.20
2018-05-15T12:40:07.633Z,4.20
2018-05-15T12:42:35.205Z,4.13
2018-05-15T12:45:03.365Z,4.13
2018-05-15T12:47:30.918Z,4.53
2018-05-15T12:49:59.456Z,4.37
2018-05-15T12:52:26.992Z,4.40
2018-05-15T12:54:54.552Z,3.80
2018-05-15T12:57:22.119Z,4.10
2018-05-15T12:59:49.665Z,4.27
2018-05-15T13:02:17.762Z,4.60
2018-05-15T13:04:45.992Z,4.13
2018-05-15T13:07:14.642Z,4.33
2018-05-15T13:09:42.168Z,3.90
2018-05-15T13:12:10.640Z,4.10
2018-05-15T13:14:38.771Z,3.57
2018-05-15T13:17:07.153Z,3.50
2018-05-15T13:19:35.256Z,4.17
2018-05-15T13:22:02.795Z,4.20
2018-05-15T13:24:30.330Z,4.07
2018-05-15T13:26:57.917Z,3.73
2018-05-15T13:29:25.449Z,4.40
2018-05-15T13:31:52.996Z,4.30
2018-05-15T13:34:21.288Z,4.27
2018-05-15T13:36:49.483Z,3.80
2018-05-15T13:39:17.068Z,4.00
2018-05-15T13:41:44.600Z,3.67
2018-05-15T13:44:12.954Z,4.97
2018-05-15T13:46:40.487Z,3.57
2018-05-15T13:49:08.345Z,4.20
2018-05-15T13:51:35.944Z,3.93
2018-05-15T13:54:03.494Z,4.00
2018-05-15T13:56:31.036Z,3.80
2018-05-15T13:58:59.509Z,3.83
2018-05-15T14:01:27.071Z,4.17
2018-05-15T14:03:55.454Z,4.17
2018-05-15T14:06:23.677Z,4.03
2018-05-15T14:08:52.208Z,5.03
2018-05-15T14:11:19.783Z,3.90
2018-05-15T14:13:47.308Z,4.17
2018-05-15T14:16:15.328Z,4.20
2018-05-15T14:18:43.243Z,4.00
2018-05-15T14:21:10.784Z,4.00
2018-05-15T14:23:38.533Z,4.00
2018-05-15T14:26:06.129Z,4.00
2018-05-15T14:28:33.689Z,4.33
2018-05-15T14:31:01.239Z,3.63
2018-05-15T14:33:29.609Z,4.50
2018-05-15T14:35:57.152Z,3.63
2018-05-15T14:38:25.410Z,3.80
2018-05-15T14:40:52.957Z,3.70
2018-05-15T14:43:21.605Z,4.17
2018-05-15T14:45:49.658Z,4.70
2018-05-15T14:48:17.183Z,3.53
2018-05-15T14:51:05.503Z,4.10
2018-05-15T14:53:33.174Z,4.50
2018-05-15T14:56:00.872Z,3.87
2018-05-15T14:58:28.471Z,4.60
2018-05-15T15:00:56.788Z,4.97
2018-05-15T15:03:25.239Z,3.83
2018-05-15T15:05:53.344Z,3.80
2018-05-15T15:08:21.568Z,3.70
2018-05-15T15:10:49.130Z,4.07
2018-05-15T15:13:16.690Z,4.50
2018-05-15T15:15:44.730Z,4.07
2018-05-15T15:18:13.173Z,3.67
2018-05-15T15:20:40.801Z,3.70
2018-05-15T15:23:09.455Z,3.73
2018-05-15T15:25:37.041Z,3.87
2018-05-15T15:28:05.118Z,3.80
2018-05-15T15:30:32.672Z,3.97
2018-05-15T15:33:01.331Z,4.00
2018-05-15T15:35:28.918Z,3.93
2018-05-15T15:37:57.165Z,4.23
2018-05-15T15:40:25.777Z,3.80
2018-05-15T15:42:53.337Z,3.70
2018-05-15T15:45:20.910Z,3.27
2018-05-15T15:47:48.435Z,5.07
2018-05-15T15:50:16.089Z,3.80
2018-05-15T15:52:43.780Z,4.00
2018-05-15T15:55:11.425Z,3.60
2018-05-15T15:57:40.384Z,4.20
2018-05-15T16:00:08.477Z,3.40
2018-05-15T16:02:38.731Z,3.90
2018-05-15T16:05:06.928Z,3.40
2018-05-15T16:07:35.267Z,3.47
2018-05-15T16:10:02.882Z,3.90
2018-05-15T16:12:30.369Z,4.00
2018-05-15T16:14:58.479Z,3.97
2018-05-15T16:17:26.477Z,4.07
2018-05-15T16:19:54.004Z,4.00
2018-05-15T16:22:22.347Z,3.90
2018-05-15T16:24:50.719Z,3.80
2018-05-15T16:27:18.264Z,4.00
2018-05-15T16:29:45.880Z,3.93
2018-05-15T16:32:13.436Z,4.10
2018-05-15T16:34:41.467Z,3.83
2018-05-15T16:37:09.964Z,3.73
2018-05-15T16:39:37.496Z,3.60
2018-05-15T16:42:05.071Z,4.00
2018-05-15T16:44:32.649Z,3.90
2018-05-15T16:47:00.930Z,4.40
2018-05-15T16:49:28.484Z,3.90
2018-05-15T16:51:56.095Z,4.17
2018-05-15T16:54:23.667Z,4.37
2018-05-15T16:56:51.283Z,4.60
2018-05-15T16:59:18.826Z,4.50
2018-05-15T17:01:47.371Z,4.33
2018-05-15T17:04:14.907Z,4.17
2018-05-15T17:06:43.088Z,4.20
2018-05-15T17:09:11.197Z,4.33
2018-05-15T17:11:39.051Z,4.10
2018-05-15T17:14:07.427Z,4.47
2018-05-15T17:16:34.954Z,4.17
2018-05-15T17:19:02.927Z,4.27
2018-05-15T17:21:31.080Z,4.67
2018-05-15T17:23:58.651Z,3.90
2018-05-15T17:26:26.194Z,4.20
2018-05-15T17:28:54.445Z,4.17
2018-05-15T17:31:22.033Z,4.20
2018-05-15T17:33:50.204Z,3.80
2018-05-15T17:36:17.764Z,4.80
2018-05-15T17:38:46.020Z,3.90
2018-05-15T17:41:13.559Z,4.50
2018-05-15T17:43:41.099Z,4.00
2018-05-15T17:46:08.694Z,4.80
2018-05-15T17:48:36.232Z,4.10
2018-05-15T17:51:03.892Z,4.20
2018-05-15T17:53:31.472Z,4.03
2018-05-15T17:55:59.022Z,4.47
2018-05-15T17:58:26.559Z,4.60
2018-05-15T18:00:54.647Z,4.27
2018-05-15T18:03:22.867Z,4.47
2018-05-15T18:05:51.039Z,4.07
2018-05-15T18:08:19.252Z,4.40
2018-05-15T18:10:46.799Z,4.07
2018-05-15T18:13:14.333Z,5.03
2018-05-15T18:15:42.443Z,4.30
2018-05-15T18:18:11.075Z,4.63
2018-05-15T18:20:38.606Z,4.23
2018-05-15T18:23:07.223Z,6.00
2018-05-15T18:25:34.771Z,4.17
2018-05-15T18:28:02.428Z,5.00
2018-05-15T18:30:30.531Z,4.43
2018-05-15T18:32:59.973Z,4.90
2018-05-15T18:35:28.134Z,4.83
2018-05-15T18:37:56.456Z,5.27
2018-05-15T18:40:24.005Z,4.80
2018-05-15T18:42:51.592Z,4.27
2018-05-15T18:45:19.198Z,5.23
2018-05-15T18:47:46.721Z,4.50
2018-05-15T18:50:14.377Z,6.00
2018-05-15T18:52:41.943Z,4.80
2018-05-15T18:55:09.672Z,5.73
2018-05-15T18:57:37.759Z,4.27
2018-05-15T19:00:05.456Z,5.43
2018-05-15T19:02:33.435Z,4.33
2018-05-15T19:05:01.580Z,5.13
2018-05-15T19:07:29.751Z,5.27
2018-05-15T19:09:57.448Z,5.10
2018-05-15T19:12:24.976Z,5.57
2018-05-15T19:14:52.960Z,4.83
2018-05-15T19:17:21.535Z,5.93
2018-05-15T19:19:49.075Z,5.27
2018-05-15T19:22:17.353Z,5.80
2018-05-15T19:24:44.899Z,5.10
2018-05-15T19:27:12.509Z,5.87
2018-05-15T19:29:40.706Z,5.43
2018-05-15T19:32:23.155Z,6.00
2018-05-15T19:34:55.942Z,4.83
2018-05-15T19:37:24.231Z,5.27
2018-05-15T19:39:52.595Z,5.43
2018-05-15T19:42:20.167Z,5.40
2018-05-15T19:44:47.791Z,5.00
2018-05-15T19:47:15.350Z,6.23
2018-05-15T19:49:42.899Z,5.27
2018-05-15T19:52:11.070Z,5.93
2018-05-15T19:54:39.441Z,5.47
2018-05-15T19:57:07.162Z,5.77
2018-05-15T19:59:34.711Z,4.93
2018-05-15T20:02:02.990Z,5.67
2018-05-15T20:04:30.511Z,5.30
2018-05-15T20:06:58.823Z,5.67
2018-05-15T20:09:26.353Z,6.03
2018-05-15T20:11:53.891Z,5.57
2018-05-15T20:14:22.341Z,5.70
2018-05-15T20:16:50.693Z,5.60
2018-05-15T20:19:18.859Z,6.63
2018-05-15T20:21:47.084Z,5.47
2018-05-15T20:24:14.630Z,5.93
2018-05-15T20:26:42.936Z,5.90
2018-05-15T20:29:11.123Z,6.03
2018-05-15T20:31:38.666Z,5.33
2018-05-15T20:34:06.852Z,6.17
2018-05-15T20:36:35.388Z,5.63
2018-05-15T20:39:02.960Z,5.77
2018-05-15T20:41:30.503Z,5.97
2018-05-15T20:43:58.070Z,6.00
2018-05-15T20:46:26.407Z,5.87
2018-05-15T20:48:53.949Z,6.30
2018-05-15T20:51:22.383Z,6.50
2018-05-15T20:53:49.967Z,5.47
2018-05-15T20:56:17.500Z,6.63
2018-05-15T20:58:45.067Z,5.23
2018-05-15T21:01:12.606Z,5.70
2018-05-15T21:03:40.951Z,5.53
2018-05-15T21:06:09.310Z,6.50
2018-05-15T21:08:37.964Z,6.07
2018-05-15T21:11:05.519Z,5.70
2018-05-15T21:13:33.051Z,5.60
2018-05-15T21:16:01.263Z,6.33
2018-05-15T21:18:29.346Z,5.67
2018-05-15T21:20:57.124Z,5.97
2018-05-15T21:23:25.011Z,5.57
2018-05-15T21:25:52.696Z,6.30
2018-05-15T21:28:20.266Z,6.73
2018-05-15T21:30:47.793Z,5.33
2018-05-15T21:33:15.918Z,6.13
2018-05-15T21:35:43.459Z,5.07
2018-05-15T21:38:12.162Z,6.83
2018-05-15T21:40:39.727Z,5.83
2018-05-15T21:43:07.274Z,7.53
2018-05-15T21:45:34.860Z,6.37
2018-05-15T21:48:02.451Z,6.37
2018-05-15T21:50:30.327Z,6.43
2018-05-15T21:52:57.876Z,6.70
2018-05-15T21:55:25.495Z,7.23
2018-05-15T21:57:53.015Z,6.97
2018-05-15T22:00:21.287Z,7.00
2018-05-15T22:02:49.399Z,6.43
2018-05-15T22:05:17.564Z,7.03
2018-05-15T22:07:45.883Z,6.63
2018-05-15T22:10:13.423Z,7.63
2018-05-15T22:12:52.671Z,6.23
2018-05-15T22:15:34.916Z,7.23
2018-05-15T22:18:14.776Z,6.43
2018-05-15T22:20:55.504Z,6.10
2018-05-15T22:23:23.213Z,6.90
2018-05-15T22:25:50.831Z,6.40
2018-05-15T22:28:18.381Z,6.93
2018-05-15T22:30:45.943Z,6.13
2018-05-15T22:33:14.292Z,6.70
2018-05-15T22:35:42.535Z,6.07
2018-05-15T22:38:10.978Z,6.50
2018-05-15T22:40:38.505Z,6.33
2018-05-15T22:43:06.051Z,6.70
2018-05-15T22:45:34.448Z,6.27
2018-05-15T22:48:02.490Z,6.77
2018-05-15T22:50:30.019Z,6.33
2018-05-15T22:52:58.566Z,7.90
2018-05-15T22:55:26.137Z,6.67
2018-05-15T22:57:53.673Z,6.87
2018-05-15T23:00:21.215Z,6.37
2018-05-15T23:02:49.420Z,6.70
2018-05-15T23:05:17.875Z,6.93
2018-05-15T23:07:45.776Z,6.47
2018-05-15T23:10:13.318Z,7.73
2018-05-15T23:12:41.806Z,6.50
2018-05-15T23:15:10.077Z,7.27
2018-05-15T23:17:38.639Z,6.90
2018-05-15T23:20:06.190Z,7.33
2018-05-15T23:22:42.511Z,6.93
2018-05-15T23:25:10.128Z,7.43
2018-05-15T23:27:37.675Z,6.77
2018-05-15T23:30:05.274Z,6.97
2018-05-15T23:32:32.805Z,7.23
2018-05-15T23:35:01.106Z,7.10
2018-05-15T23:37:29.471Z,7.73
2018-05-15T23:39:57.004Z,6.87
2018-05-15T23:42:24.563Z,7.97
2018-05-15T23:44:52.952Z,6.90
2018-05-15T23:47:20.500Z,7.73
2018-05-15T23:49:48.023Z,6.83
2018-05-15T23:52:15.587Z,7.37
2018-05-15T23:54:43.123Z,7.13
2018-05-15T23:57:10.778Z,7.63
2018-05-15T23:59:38.348Z,7.10
